Weather reports worldwide

Advertisment
Great Dun Fell, United Kingdom (3227): temperature & dewpoint: 15.08.2017 11:00:00 - 21.08.2017 11:00:00 (BST)Great Dun Fell, United Kingdom (3227): wind speed & gusts: 15.08.2017 11:00:00 - 21.08.2017 11:00:00 (BST)Great Dun Fell, United Kingdom (3227): wind direction: 15.08.2017 11:00:00 - 21.08.2017 11:00:00 (BST)Great Dun Fell, United Kingdom (3227): visibility: 15.08.2017 11:00:00 - 21.08.2017 11:00:00 (BST)
Date & Time tt [°C] td [°C] ff [km/h] ff [kn] fx [km/h] fx [kn] dd vv [km]
21.08.2017 11:00:00 - - - - - - - -
21.08.2017 10:00:00 9,8 6,0 24 13 - - S -
21.08.2017 09:00:00 9,4 4,8 24 13 - - S -
21.08.2017 08:00:00 9,0 6,0 28 15 - - SSW -
21.08.2017 07:00:00 8,9 6,0 28 15 - - S -
21.08.2017 06:00:00 8,7 6,5 28 15 - - SSW -
21.08.2017 05:00:00 8,7 7,3 26 14 - - S -
21.08.2017 04:00:00 8,2 7,9 26 14 - - S -
21.08.2017 03:00:00 8,1 7,1 26 14 - - SSW -
21.08.2017 02:00:00 8,2 6,8 24 13 - - S -
21.08.2017 01:00:00 8,4 7,0 21 11 - - SSW -
21.08.2017 00:00:00 8,6 6,6 21 11 - - SW -
20.08.2017 23:00:00 8,7 5,5 18 10 - - SSW -
20.08.2017 22:00:00 9,1 4,4 18 10 - - SSE -
20.08.2017 21:00:00 8,3 6,1 13 7 - - S -
20.08.2017 20:00:00 7,6 6,2 9 5 - - SW -
20.08.2017 19:00:00 7,8 7,0 16 9 - - SSW -
20.08.2017 18:00:00 8,2 7,0 16 9 - - SSW -
20.08.2017 17:00:00 9,1 6,6 13 7 - - W -
20.08.2017 16:00:00 8,9 6,2 16 9 - - W -
20.08.2017 15:00:00 8,8 6,0 18 10 - - W -
20.08.2017 14:00:00 8,7 5,7 21 11 - - W -
20.08.2017 13:00:00 8,0 6,0 24 13 - - W -
20.08.2017 12:00:00 7,5 6,5 24 13 - - W -
20.08.2017 11:00:00 7,4 7,4 28 15 - - W -
20.08.2017 10:00:00 7,3 7,3 28 15 - - W -
20.08.2017 09:00:00 6,9 6,9 21 11 - - W -
20.08.2017 08:00:00 6,9 6,9 29 16 48 26 W -
20.08.2017 07:00:00 6,9 6,9 35 19 - - W -
20.08.2017 06:00:00 7,0 7,0 35 19 46 25 W -
20.08.2017 05:00:00 7,0 7,0 35 19 48 26 W -
20.08.2017 04:00:00 7,1 7,1 41 22 63 34 W -
20.08.2017 03:00:00 7,1 7,1 46 25 63 34 W -
20.08.2017 02:00:00 7,1 7,1 50 27 67 36 W -
20.08.2017 01:00:00 7,3 7,3 52 28 70 38 W -
20.08.2017 00:00:00 7,1 7,1 50 27 72 39 W -
19.08.2017 23:00:00 6,9 6,9 55 30 76 41 W -
19.08.2017 22:00:00 7,2 7,2 57 31 72 39 W -
19.08.2017 21:00:00 7,2 7,2 52 28 80 43 W -
19.08.2017 20:00:00 7,5 7,4 59 32 87 47 W -
19.08.2017 19:00:00 7,9 7,5 68 37 89 48 W -
19.08.2017 18:00:00 7,9 7,9 68 37 91 49 W -
19.08.2017 17:00:00 7,4 7,4 65 35 96 52 W -
19.08.2017 16:00:00 7,2 7,2 72 39 81 44 W -
19.08.2017 15:00:00 7,4 7,4 67 36 78 42 W -
19.08.2017 14:00:00 7,3 7,3 61 33 83 45 W -
19.08.2017 13:00:00 6,7 6,7 68 37 85 46 W -
19.08.2017 12:00:00 6,9 6,9 57 31 85 46 W -
19.08.2017 11:00:00 6,1 6,1 57 31 81 44 W -
19.08.2017 10:00:00 6,1 6,1 63 34 89 48 W -
19.08.2017 09:00:00 6,7 6,7 65 35 78 42 WSW -
19.08.2017 08:00:00 6,5 6,5 57 31 70 38 W -
19.08.2017 07:00:00 6,6 6,6 54 29 67 36 W -
19.08.2017 06:00:00 6,8 6,8 54 29 81 44 W -
19.08.2017 05:00:00 6,8 6,8 61 33 83 45 W -
19.08.2017 04:00:00 6,7 6,7 63 34 87 47 W -
19.08.2017 03:00:00 6,6 6,6 57 31 76 41 W -
19.08.2017 02:00:00 7,1 7,1 50 27 76 41 W -
19.08.2017 01:00:00 7,7 7,7 44 24 72 39 W -
19.08.2017 00:00:00 7,0 7,0 48 26 63 34 WSW -
18.08.2017 23:00:00 6,7 6,7 55 30 61 33 WSW -
18.08.2017 22:00:00 7,0 7,0 46 25 54 29 WSW -
18.08.2017 21:00:00 6,9 6,9 46 25 57 31 WSW -
18.08.2017 20:00:00 7,1 7,1 50 27 68 37 WSW -
18.08.2017 19:00:00 7,3 6,8 52 28 68 37 WSW -
18.08.2017 18:00:00 7,0 6,9 57 31 70 38 WSW -
18.08.2017 17:00:00 7,7 5,8 63 34 74 40 WSW -
18.08.2017 16:00:00 6,2 6,2 44 24 72 39 W -
18.08.2017 15:00:00 7,6 5,6 59 32 76 41 WSW -
18.08.2017 14:00:00 7,0 6,1 65 35 80 43 W -
18.08.2017 13:00:00 6,5 6,4 57 31 72 39 WSW -
18.08.2017 12:00:00 7,1 7,1 57 31 70 38 WSW -
18.08.2017 11:00:00 6,5 6,5 59 32 72 39 WSW -
18.08.2017 10:00:00 6,7 6,7 52 28 67 36 WSW -
18.08.2017 09:00:00 6,5 6,5 54 29 67 36 WSW -
18.08.2017 08:00:00 6,7 6,7 59 32 72 39 WSW -
18.08.2017 07:00:00 7,1 7,1 55 30 70 38 WSW -
18.08.2017 06:00:00 7,3 7,3 57 31 85 46 W -
18.08.2017 05:00:00 7,7 7,7 55 30 85 46 SW -
18.08.2017 04:00:00 9,0 9,0 68 37 94 51 SW -
18.08.2017 03:00:00 8,8 8,8 67 36 85 46 SSW -
18.08.2017 02:00:00 9,0 9,0 63 34 78 42 SW -
18.08.2017 01:00:00 9,0 9,0 46 25 78 42 SW -
18.08.2017 00:00:00 9,4 9,4 61 33 80 43 SW -
17.08.2017 23:00:00 9,4 9,4 55 30 72 39 SW -
17.08.2017 22:00:00 9,4 9,4 54 29 72 39 SW -
17.08.2017 21:00:00 9,1 9,1 57 31 74 40 SW -
17.08.2017 20:00:00 10,1 10,1 61 33 78 42 SW -
17.08.2017 19:00:00 10,5 10,5 68 37 80 43 SW -
17.08.2017 18:00:00 10,6 10,0 59 32 65 35 SW -
17.08.2017 17:00:00 11,0 8,5 52 28 70 38 SW -
17.08.2017 16:00:00 11,5 8,7 59 32 72 39 SW -
17.08.2017 15:00:00 11,8 7,7 50 27 59 32 SW -
17.08.2017 14:00:00 12,2 6,8 44 24 55 30 SW -
17.08.2017 13:00:00 11,9 9,0 35 19 57 31 SW -
17.08.2017 12:00:00 11,4 9,2 44 24 52 28 SW -
17.08.2017 11:00:00 10,6 9,4 35 19 - - SW -
17.08.2017 10:00:00 10,1 10,1 22 12 - - SW -
17.08.2017 09:00:00 9,5 9,5 28 15 - - SW -
17.08.2017 08:00:00 10,0 10,0 31 17 - - WSW -
17.08.2017 07:00:00 10,1 10,1 34 18 46 25 SW -
17.08.2017 06:00:00 10,1 10,1 39 21 54 29 SW -
17.08.2017 05:00:00 10,2 10,2 44 24 55 30 SW -
17.08.2017 04:00:00 10,3 10,3 44 24 57 31 SW -
17.08.2017 03:00:00 10,3 10,3 50 27 76 41 SW -
17.08.2017 02:00:00 10,4 10,4 65 35 83 45 SW -
17.08.2017 01:00:00 10,6 10,6 61 33 80 43 SW -
17.08.2017 00:00:00 10,7 10,7 61 33 80 43 SSW -
16.08.2017 23:00:00 10,8 10,8 61 33 87 47 SSW -
16.08.2017 22:00:00 10,6 10,6 67 36 87 47 SSW 0,3
16.08.2017 21:00:00 10,4 10,4 54 29 76 41 SSW -
16.08.2017 20:00:00 10,1 10,1 52 28 78 42 SSW -
16.08.2017 19:00:00 10,3 10,0 61 33 72 39 SSW -
16.08.2017 18:00:00 10,5 9,1 61 33 76 41 SSW -
16.08.2017 17:00:00 10,4 8,8 52 28 65 35 SSW -
16.08.2017 16:00:00 10,5 8,3 57 31 74 40 SSW -
16.08.2017 15:00:00 10,3 7,5 67 36 76 41 SW -
16.08.2017 14:00:00 10,4 7,5 59 32 76 41 SW -
16.08.2017 13:00:00 10,0 7,6 50 27 61 33 SW -
16.08.2017 12:00:00 8,6 7,3 39 21 54 29 SW -
16.08.2017 11:00:00 8,3 7,7 44 24 55 30 SSW -
16.08.2017 10:00:00 7,8 7,4 42 23 52 28 SSW -
16.08.2017 09:00:00 7,7 7,7 37 20 46 25 SSW -
16.08.2017 08:00:00 7,8 7,8 37 20 - - SSW -
16.08.2017 07:00:00 7,9 7,9 35 19 46 25 SSW -
16.08.2017 06:00:00 8,1 8,1 39 21 54 29 SSW -
16.08.2017 05:00:00 8,4 8,4 44 24 59 32 SW -
16.08.2017 04:00:00 8,8 8,8 41 22 54 29 SSW -
16.08.2017 03:00:00 8,6 8,6 31 17 48 26 SW -
16.08.2017 02:00:00 8,5 8,5 41 22 48 26 SW -
16.08.2017 01:00:00 8,4 8,4 35 19 46 25 WSW -
16.08.2017 00:00:00 8,2 8,2 46 25 52 28 WSW -
15.08.2017 23:00:00 8,4 8,4 39 21 - - WSW -
15.08.2017 22:00:00 8,4 8,4 31 17 - - SW -
15.08.2017 21:00:00 8,4 8,4 41 22 46 25 SW -
15.08.2017 20:00:00 8,4 8,4 42 23 46 25 SW -
15.08.2017 19:00:00 8,8 8,1 34 18 - - WSW -
15.08.2017 18:00:00 9,6 7,5 39 21 55 30 WSW -
15.08.2017 17:00:00 9,7 7,5 44 24 63 34 W -
15.08.2017 16:00:00 10,0 7,9 50 27 68 37 WSW -
15.08.2017 15:00:00 9,1 8,2 41 22 54 29 WSW -
15.08.2017 14:00:00 8,2 8,2 31 17 61 33 W -
15.08.2017 13:00:00 8,6 7,8 34 18 - - WSW -
15.08.2017 12:00:00 8,1 8,0 26 14 48 26 W -
15.08.2017 11:00:00 8,1 8,1 35 19 54 29 WNW -

tt = temperature
td = dewpoint
ff = wind speed
fx = gusts
dd = wind direction
vv = visibility

Next stations